Time;durP1;ratioP1;P1;durP2;ratioP2;P2;SDS_P1;SDS_P2;PMS_P1;PMS_P2;Temp;Humidity;BMP_temperature;BMP_pressure;BME280_temperature;BME280_humidity;BME280_pressure;Samples;Min_cycle;Max_cycle;Signal;HPM_P1;HPM_P2
2022/06/27 00:00:30;;;;;;;4.57;3.07;;;19.00;99.90;;;;;;5057925;28;20472;-81
2022/06/27 00:02:59;;;;;;;3.90;2.83;;;19.00;99.90;;;;;;5058419;28;20824;-82
2022/06/27 00:05:27;;;;;;;7.80;3.10;;;19.00;99.90;;;;;;5058796;28;20589;-80
2022/06/27 00:07:54;;;;;;;4.97;3.07;;;19.00;99.90;;;;;;5057978;28;20447;-81
2022/06/27 00:10:24;;;;;;;4.47;3.10;;;19.00;99.90;;;;;;5057904;28;20497;-79
2022/06/27 00:12:51;;;;;;;3.53;2.93;;;18.90;99.90;;;;;;5058101;28;20543;-82
2022/06/27 00:15:18;;;;;;;3.93;3.10;;;18.90;99.90;;;;;;5052997;28;20448;-81
2022/06/27 00:17:45;;;;;;;4.07;3.20;;;19.00;99.90;;;;;;5058899;28;20540;-80
2022/06/27 00:20:12;;;;;;;4.00;3.00;;;19.00;99.90;;;;;;5059432;28;20479;-82
2022/06/27 00:22:41;;;;;;;4.47;3.00;;;19.00;99.90;;;;;;5057076;28;20467;-82
2022/06/27 00:25:09;;;;;;;5.50;2.80;;;18.90;99.90;;;;;;5058006;28;20539;-83
2022/06/27 00:27:36;;;;;;;3.40;3.00;;;18.90;99.90;;;;;;5057391;28;20518;-81
2022/06/27 00:30:06;;;;;;;5.90;3.00;;;18.90;99.90;;;;;;5058485;28;20563;-82
2022/06/27 00:32:37;;;;;;;4.40;3.10;;;18.90;99.90;;;;;;5059606;28;20455;-81
2022/06/27 00:35:25;;;;;;;3.80;3.37;;;18.90;99.90;;;;;;5058562;28;20455;-82
2022/06/27 00:38:01;;;;;;;5.63;3.03;;;18.90;99.90;;;;;;5057916;28;20562;-80
2022/06/27 00:40:31;;;;;;;4.00;3.13;;;19.00;99.90;;;;;;5057417;28;20525;-80
2022/06/27 00:43:01;;;;;;;4.07;3.43;;;18.90;99.90;;;;;;5058673;28;20450;-82
2022/06/27 00:45:30;;;;;;;5.63;3.37;;;18.90;99.90;;;;;;5059890;28;20451;-80
2022/06/27 00:47:57;;;;;;;4.93;3.57;;;18.90;99.90;;;;;;5060211;28;20555;-84
2022/06/27 00:50:24;;;;;;;4.90;3.90;;;18.90;99.90;;;;;;5060967;28;20485;-82
2022/06/27 00:52:51;;;;;;;4.93;4.00;;;18.90;99.90;;;;;;5060005;28;20547;-83
2022/06/27 00:55:20;;;;;;;6.80;3.80;;;18.90;99.90;;;;;;5059193;28;20542;-81
2022/06/27 00:57:47;;;;;;;7.93;3.80;;;18.90;99.90;;;;;;5059924;28;20458;-81
2022/06/27 01:00:15;;;;;;;5.07;4.17;;;18.80;99.90;;;;;;5061842;28;20549;-82
2022/06/27 01:02:41;;;;;;;4.40;4.00;;;18.80;99.90;;;;;;5061843;28;20488;-82
2022/06/27 01:05:11;;;;;;;3.77;3.40;;;18.80;99.90;;;;;;5060101;28;20982;-82
2022/06/27 01:07:39;;;;;;;6.10;4.27;;;18.80;99.90;;;;;;5060039;28;20570;-80
2022/06/27 01:10:07;;;;;;;6.50;4.50;;;18.70;99.90;;;;;;5060277;28;20484;-82
2022/06/27 01:12:35;;;;;;;4.90;4.10;;;18.70;99.90;;;;;;5061164;28;20491;-81
2022/06/27 01:15:02;;;;;;;6.60;4.50;;;18.70;99.90;;;;;;5060906;28;20484;-80
2022/06/27 01:17:29;;;;;;;5.40;4.30;;;18.70;99.90;;;;;;5058641;28;20459;-80
2022/06/27 01:19:58;;;;;;;4.93;4.43;;;18.70;99.90;;;;;;5056740;28;20563;-81
2022/06/27 01:22:26;;;;;;;5.87;4.57;;;18.70;99.90;;;;;;5059216;28;20473;-81
2022/06/27 01:24:53;;;;;;;6.20;4.50;;;18.70;99.90;;;;;;5058086;28;20871;-81
2022/06/27 01:27:20;;;;;;;5.60;4.57;;;18.70;99.90;;;;;;5058007;28;20549;-78
2022/06/27 01:29:47;;;;;;;5.33;4.20;;;18.70;99.90;;;;;;5057739;28;20540;-81
2022/06/27 01:32:14;;;;;;;4.83;4.40;;;18.70;99.90;;;;;;5056644;28;20478;-81
2022/06/27 01:34:40;;;;;;;4.83;4.03;;;18.70;99.90;;;;;;5057953;28;20526;-82
2022/06/27 01:37:08;;;;;;;6.33;4.43;;;18.70;99.90;;;;;;5058006;28;20541;-79
2022/06/27 01:39:38;;;;;;;4.57;4.07;;;18.70;99.90;;;;;;5061936;28;20502;-78
2022/06/27 01:42:05;;;;;;;5.47;4.97;;;18.70;99.90;;;;;;5056039;28;20486;-83
2022/06/27 01:44:34;;;;;;;5.33;4.83;;;18.60;99.90;;;;;;5056783;28;20457;-84
2022/06/27 01:47:06;;;;;;;6.73;4.20;;;18.60;99.90;;;;;;5057408;28;20581;-81
2022/06/27 01:49:35;;;;;;;6.00;4.33;;;18.60;99.90;;;;;;5059370;28;20460;-83
2022/06/27 01:52:02;;;;;;;5.37;4.57;;;18.60;99.90;;;;;;5057544;28;20539;-82
2022/06/27 01:54:30;;;;;;;4.80;4.30;;;18.60;99.90;;;;;;5062870;28;20482;-81
2022/06/27 01:56:58;;;;;;;5.17;4.43;;;18.60;99.90;;;;;;5063590;28;20476;-84
2022/06/27 01:59:27;;;;;;;6.03;3.90;;;18.60;99.90;;;;;;5065708;28;20458;-81
2022/06/27 02:01:54;;;;;;;5.53;5.03;;;18.60;99.90;;;;;;5070735;28;20450;-82
2022/06/27 02:04:21;;;;;;;4.90;4.37;;;18.60;99.90;;;;;;5071660;28;20498;-85
2022/06/27 02:06:48;;;;;;;5.47;4.63;;;18.60;99.90;;;;;;5056099;28;20564;-82
2022/06/27 02:09:16;;;;;;;5.30;4.70;;;18.70;99.90;;;;;;5055226;28;20489;-80
2022/06/27 02:11:45;;;;;;;8.33;5.37;;;18.60;99.90;;;;;;5053921;28;20518;-79
2022/06/27 02:14:13;;;;;;;6.30;4.93;;;18.60;99.90;;;;;;5055288;28;21176;-80
2022/06/27 02:16:41;;;;;;;6.20;4.60;;;18.60;99.90;;;;;;5054965;28;20539;-83
2022/06/27 02:19:10;;;;;;;6.57;5.17;;;18.60;99.90;;;;;;5054091;28;20452;-81
2022/06/27 02:21:37;;;;;;;8.17;5.20;;;18.60;99.90;;;;;;5053761;28;20544;-78
2022/06/27 02:24:04;;;;;;;5.83;5.10;;;18.60;99.90;;;;;;5056401;28;20537;-81
2022/06/27 02:26:31;;;;;;;7.40;5.40;;;18.60;99.90;;;;;;5056190;28;20493;-81
2022/06/27 02:29:00;;;;;;;7.33;5.70;;;18.60;99.90;;;;;;5055621;28;20516;-80
2022/06/27 02:31:28;;;;;;;5.13;4.60;;;18.60;99.90;;;;;;5055055;28;20509;-82
2022/06/27 02:33:58;;;;;;;6.83;5.30;;;18.60;99.90;;;;;;5055017;28;20808;-83
2022/06/27 02:36:30;;;;;;;8.23;6.00;;;18.70;99.90;;;;;;5056556;28;20525;-83
2022/06/27 02:38:58;;;;;;;6.43;5.00;;;18.70;99.90;;;;;;5056847;28;20570;-82
2022/06/27 02:41:28;;;;;;;5.10;4.60;;;18.70;99.90;;;;;;5056730;28;20489;-83
2022/06/27 02:44:02;;;;;;;6.20;4.77;;;18.70;99.90;;;;;;5056967;28;20498;-85
2022/06/27 02:46:31;;;;;;;5.97;5.37;;;18.70;99.90;;;;;;5060346;28;20566;-82
2022/06/27 02:49:00;;;;;;;5.73;5.03;;;18.70;99.90;;;;;;5059542;28;20455;-81
2022/06/27 02:51:31;;;;;;;7.03;5.10;;;18.70;99.90;;;;;;5061021;28;20475;-81
2022/06/27 02:54:05;;;;;;;7.53;5.00;;;18.70;99.90;;;;;;5060064;28;20471;-79
2022/06/27 02:56:33;;;;;;;6.10;5.50;;;18.80;99.90;;;;;;5059059;28;20477;-83
2022/06/27 02:59:06;;;;;;;13.03;5.57;;;18.70;99.90;;;;;;5056962;28;20466;-82
2022/06/27 03:01:43;;;;;;;7.00;4.67;;;18.70;99.90;;;;;;5064928;28;20478;-81
2022/06/27 03:04:20;;;;;;;8.50;5.60;;;18.60;99.90;;;;;;5060635;28;20506;-81
2022/06/27 03:06:56;;;;;;;4.77;4.37;;;18.60;99.90;;;;;;5062959;28;20489;-81
2022/06/27 03:14:32;;;;;;;5.37;4.60;;;18.60;99.90;;;;;;4993896;28;20473;-80
2022/06/27 03:17:02;;;;;;;5.13;4.63;;;18.60;99.90;;;;;;5007792;28;20477;-80
2022/06/27 03:25:23;;;;;;;3.23;2.90;;;18.70;99.90;;;;;;4947553;29;20503;-82
2022/06/27 03:34:34;;;;;;;4.10;3.17;;;19.00;99.90;;;;;;4939204;28;20544;-79
2022/06/27 03:37:22;;;;;;;4.87;3.90;;;19.30;99.90;;;;;;4989744;28;21028;-80
2022/06/27 03:46:41;;;;;;;5.20;3.70;;;19.50;99.90;;;;;;4828633;29;21098;-82
2022/06/27 03:51:55;;;;;;;6.60;3.90;;;19.40;99.90;;;;;;5067843;23;20508;-80
2022/06/27 03:54:22;;;;;;;5.23;4.57;;;19.20;99.90;;;;;;5051858;28;20978;-79
2022/06/27 03:56:49;;;;;;;7.50;4.10;;;19.30;99.90;;;;;;5060237;28;20997;-80
2022/06/27 03:59:16;;;;;;;5.10;4.20;;;19.20;99.90;;;;;;5060211;28;20989;-80
2022/06/27 04:01:42;;;;;;;5.20;4.37;;;19.10;99.90;;;;;;5032746;28;20844;-80
2022/06/27 04:04:09;;;;;;;5.33;4.77;;;19.10;99.90;;;;;;5021285;28;20903;-80
2022/06/27 04:06:36;;;;;;;5.70;4.67;;;19.10;99.90;;;;;;5026619;28;20516;-83
2022/06/27 04:09:04;;;;;;;5.60;4.73;;;19.10;99.90;;;;;;5050388;28;20488;-82
2022/06/27 04:11:31;;;;;;;4.70;4.20;;;19.00;99.90;;;;;;5044700;28;20543;-81
2022/06/27 04:13:58;;;;;;;6.63;5.63;;;19.00;99.90;;;;;;5023917;28;20449;-81
2022/06/27 04:16:25;;;;;;;5.30;4.40;;;19.00;99.90;;;;;;5022932;28;20449;-81
2022/06/27 04:18:54;;;;;;;6.17;4.53;;;19.00;99.90;;;;;;5022431;28;20496;-81
2022/06/27 04:21:21;;;;;;;6.57;4.47;;;19.00;99.90;;;;;;5023263;28;20484;-80
2022/06/27 04:23:47;;;;;;;6.97;5.47;;;19.00;99.90;;;;;;5030030;28;20980;-80
2022/06/27 04:26:16;;;;;;;6.53;4.83;;;18.90;99.90;;;;;;5036457;28;20460;-80
2022/06/27 04:28:42;;;;;;;7.37;4.80;;;18.90;99.90;;;;;;5022125;28;21062;-80
2022/06/27 04:31:10;;;;;;;6.80;5.43;;;18.90;99.90;;;;;;5021666;28;20528;-80
2022/06/27 04:33:37;;;;;;;6.07;4.80;;;18.90;99.90;;;;;;5020854;28;20455;-80
2022/06/27 04:36:04;;;;;;;6.47;4.30;;;19.00;99.90;;;;;;5021427;28;20551;-80
2022/06/27 04:38:32;;;;;;;5.20;4.70;;;18.90;99.90;;;;;;5035351;28;20479;-81
2022/06/27 04:40:59;;;;;;;7.80;5.07;;;19.00;99.90;;;;;;5041813;28;20489;-81
2022/06/27 04:43:28;;;;;;;6.73;5.33;;;19.00;99.90;;;;;;5041926;28;20464;-82
2022/06/27 04:45:55;;;;;;;6.10;5.50;;;18.90;99.90;;;;;;5044538;28;20457;-80
2022/06/27 04:48:22;;;;;;;6.90;5.63;;;18.90;99.90;;;;;;5042427;28;21057;-83
2022/06/27 04:50:49;;;;;;;7.07;5.90;;;18.90;99.90;;;;;;5028187;28;20462;-82
2022/06/27 04:53:16;;;;;;;8.40;6.20;;;18.90;99.90;;;;;;5038555;28;20457;-81
2022/06/27 04:55:43;;;;;;;6.27;5.30;;;18.90;99.90;;;;;;5025300;28;20851;-82
2022/06/27 04:58:10;;;;;;;6.50;5.90;;;18.90;99.90;;;;;;5043195;28;20484;-82
2022/06/27 05:00:38;;;;;;;6.07;5.47;;;18.90;99.90;;;;;;5053709;28;20813;-83
2022/06/27 05:03:05;;;;;;;6.00;5.40;;;18.90;99.90;;;;;;5042389;28;20480;-82
2022/06/27 05:05:32;;;;;;;8.03;6.70;;;18.90;99.90;;;;;;5026892;28;20551;-81
2022/06/27 05:08:01;;;;;;;7.40;5.70;;;18.90;99.90;;;;;;5027481;28;20517;-82
2022/06/27 05:10:28;;;;;;;7.27;6.30;;;18.90;99.90;;;;;;5037652;28;20444;-82
2022/06/27 05:12:56;;;;;;;7.10;6.40;;;18.90;99.90;;;;;;5044473;28;20532;-83
2022/06/27 05:15:22;;;;;;;7.63;6.83;;;18.80;99.90;;;;;;5053477;28;20955;-81
2022/06/27 05:17:51;;;;;;;7.83;6.70;;;18.80;99.90;;;;;;5043631;28;20547;-84
2022/06/27 05:20:18;;;;;;;9.17;6.93;;;18.80;99.90;;;;;;5036848;28;20464;-84
2022/06/27 05:22:45;;;;;;;10.20;7.97;;;18.80;99.90;;;;;;5037618;28;20515;-83
2022/06/27 05:25:14;;;;;;;9.00;7.23;;;18.80;99.90;;;;;;5049253;28;20463;-85
2022/06/27 05:27:43;;;;;;;8.73;6.70;;;18.90;99.90;;;;;;5054624;28;20495;-82
2022/06/27 05:30:11;;;;;;;7.47;6.67;;;18.90;99.90;;;;;;5057210;28;20440;-81
2022/06/27 05:32:38;;;;;;;8.00;6.80;;;19.00;99.90;;;;;;5038752;28;20532;-83
2022/06/27 05:35:07;;;;;;;7.73;6.93;;;19.00;99.90;;;;;;5037353;28;20468;-84
2022/06/27 05:37:37;;;;;;;8.17;7.27;;;19.00;99.90;;;;;;5020767;28;20454;-82
2022/06/27 05:40:05;;;;;;;8.10;7.20;;;19.10;99.90;;;;;;5032214;28;20479;-83
2022/06/27 05:42:32;;;;;;;8.50;7.70;;;19.20;99.90;;;;;;5028130;28;20552;-81
2022/06/27 05:44:59;;;;;;;10.73;8.13;;;19.30;99.90;;;;;;5035590;28;20447;-81
2022/06/27 05:47:31;;;;;;;8.13;7.33;;;19.40;99.90;;;;;;5035917;28;20839;-81
2022/06/27 05:49:58;;;;;;;9.27;7.20;;;19.50;99.90;;;;;;5038002;28;20458;-82
2022/06/27 05:52:27;;;;;;;8.77;7.33;;;19.60;99.90;;;;;;5048085;28;20566;-81
2022/06/27 05:54:55;;;;;;;9.57;8.20;;;19.80;99.90;;;;;;5035603;28;20838;-83
2022/06/27 05:57:24;;;;;;;9.80;7.20;;;20.00;99.90;;;;;;5038159;28;20445;-83
2022/06/27 05:59:51;;;;;;;7.27;6.57;;;20.10;99.90;;;;;;5027736;28;21031;-81
2022/06/27 06:02:18;;;;;;;10.47;8.50;;;20.10;99.90;;;;;;5030401;28;21051;-81
2022/06/27 06:04:45;;;;;;;7.03;6.33;;;20.10;99.90;;;;;;5018264;28;20496;-81
2022/06/27 06:07:15;;;;;;;10.10;6.60;;;20.00;99.90;;;;;;5052651;28;20515;-81
2022/06/27 06:09:45;;;;;;;8.77;6.77;;;20.00;99.90;;;;;;5043785;28;20490;-79
2022/06/27 06:12:12;;;;;;;7.53;6.37;;;20.00;99.90;;;;;;5040308;28;20477;-82
2022/06/27 06:14:40;;;;;;;7.20;6.53;;;20.00;99.90;;;;;;5038597;28;20452;-79
2022/06/27 06:17:07;;;;;;;7.63;6.87;;;19.90;99.90;;;;;;5036723;28;20462;-79
2022/06/27 06:19:34;;;;;;;8.50;7.33;;;19.90;99.90;;;;;;5036676;28;20832;-81
2022/06/27 06:22:01;;;;;;;7.50;6.80;;;19.80;99.90;;;;;;5043175;28;21078;-78
2022/06/27 06:24:28;;;;;;;7.30;6.60;;;19.80;99.90;;;;;;5040390;28;20445;-81
2022/06/27 06:27:00;;;;;;;7.50;6.80;;;19.80;99.90;;;;;;5034432;28;20458;-81
2022/06/27 06:29:27;;;;;;;8.17;7.37;;;19.80;99.90;;;;;;5039093;28;20893;-81
2022/06/27 06:31:54;;;;;;;7.40;6.10;;;19.80;99.90;;;;;;5033598;28;20571;-81
2022/06/27 06:34:21;;;;;;;8.37;6.57;;;19.70;99.90;;;;;;5031319;28;20461;-80
2022/06/27 06:36:48;;;;;;;7.43;6.57;;;19.70;99.90;;;;;;5034110;28;20445;-78
2022/06/27 06:39:15;;;;;;;8.13;6.47;;;19.70;99.90;;;;;;5042856;28;20444;-79
2022/06/27 06:41:42;;;;;;;8.50;7.70;;;19.70;99.90;;;;;;5044810;28;20499;-82
2022/06/27 06:44:11;;;;;;;7.83;7.10;;;19.70;99.90;;;;;;5048843;28;20462;-80
2022/06/27 06:46:38;;;;;;;7.67;6.80;;;19.80;99.90;;;;;;5035682;28;20469;-80
2022/06/27 06:49:06;;;;;;;8.70;7.80;;;19.80;99.90;;;;;;5051679;28;20488;-79
2022/06/27 06:51:35;;;;;;;9.23;8.27;;;19.80;99.90;;;;;;5036381;28;20971;-81
2022/06/27 06:54:04;;;;;;;7.60;6.80;;;19.80;99.90;;;;;;5018813;28;20458;-79
2022/06/27 06:56:31;;;;;;;8.70;7.80;;;19.70;99.90;;;;;;5025272;28;20463;-78
2022/06/27 06:58:59;;;;;;;8.83;7.80;;;19.70;99.90;;;;;;5039431;28;20518;-79
2022/06/27 07:01:28;;;;;;;8.80;7.90;;;19.70;99.90;;;;;;5038532;28;20556;-80
2022/06/27 07:03:55;;;;;;;8.60;7.70;;;19.70;99.90;;;;;;5038023;28;20453;-83
2022/06/27 07:06:24;;;;;;;9.13;7.90;;;19.60;99.90;;;;;;5040618;28;20459;-82
2022/06/27 07:08:53;;;;;;;9.13;8.23;;;19.60;99.90;;;;;;5036116;28;20495;-79
2022/06/27 07:11:21;;;;;;;9.53;8.37;;;19.60;99.90;;;;;;5041224;28;20538;-81
2022/06/27 07:13:48;;;;;;;9.47;8.47;;;19.50;99.90;;;;;;5047900;28;20500;-82
2022/06/27 07:16:15;;;;;;;10.17;9.17;;;19.50;99.90;;;;;;5054769;28;20443;-79
2022/06/27 07:18:44;;;;;;;12.13;9.70;;;19.50;99.90;;;;;;5043304;28;20475;-80
2022/06/27 07:21:11;;;;;;;10.07;8.30;;;19.50;99.90;;;;;;5054093;28;21011;-78
2022/06/27 07:23:38;;;;;;;10.33;9.03;;;19.50;99.90;;;;;;5054315;28;20455;-79
2022/06/27 07:26:06;;;;;;;10.80;8.70;;;19.50;99.90;;;;;;5041449;28;20527;-78
2022/06/27 07:28:32;;;;;;;8.90;8.00;;;19.50;99.90;;;;;;5039838;28;20488;-81
2022/06/27 07:31:01;;;;;;;10.20;9.00;;;19.50;99.90;;;;;;5037577;28;20483;-80
2022/06/27 07:33:28;;;;;;;9.90;8.63;;;19.60;99.90;;;;;;5038702;28;20468;-81
2022/06/27 07:35:56;;;;;;;11.07;9.53;;;19.60;99.90;;;;;;5052857;28;20455;-79
2022/06/27 07:38:23;;;;;;;13.47;9.37;;;19.60;99.90;;;;;;5056000;28;20982;-79
2022/06/27 07:40:50;;;;;;;12.93;10.00;;;19.60;99.90;;;;;;5033494;28;20918;-79
2022/06/27 07:43:17;;;;;;;10.47;9.20;;;19.60;99.90;;;;;;5051402;28;20967;-81
2022/06/27 07:45:44;;;;;;;11.43;9.73;;;19.60;99.90;;;;;;5051445;28;20457;-79
2022/06/27 07:48:12;;;;;;;11.27;10.10;;;19.60;99.90;;;;;;5040214;28;20981;-80
2022/06/27 07:50:39;;;;;;;12.17;10.43;;;19.60;99.90;;;;;;5043047;28;20463;-78
2022/06/27 07:53:12;;;;;;;13.33;11.93;;;19.60;99.90;;;;;;5033879;28;21035;-80
2022/06/27 07:55:40;;;;;;;14.30;12.30;;;19.60;99.90;;;;;;5016636;28;20537;-80
2022/06/27 07:58:08;;;;;;;12.23;10.90;;;19.70;99.90;;;;;;5016812;28;20449;-80
2022/06/27 08:00:35;;;;;;;16.30;12.83;;;19.60;99.90;;;;;;5018226;28;20461;-79
2022/06/27 08:03:36;;;;;;;17.00;13.17;;;19.70;99.90;;;;;;5028303;28;20538;-79
2022/06/27 08:05:53;;;;;;;14.30;12.80;;;19.50;99.90;;;;;;5046558;28;20459;-82
2022/06/27 08:08:23;;;;;;;17.97;12.30;;;19.50;99.90;;;;;;5045570;28;20490;-82
2022/06/27 08:10:50;;;;;;;14.47;12.87;;;19.50;99.90;;;;;;5050261;28;20600;-80
2022/06/27 08:13:17;;;;;;;16.57;14.23;;;19.50;99.90;;;;;;5033327;28;20457;-79
2022/06/27 08:15:46;;;;;;;15.50;13.10;;;19.50;99.90;;;;;;5028043;28;20507;-82
2022/06/27 08:18:13;;;;;;;17.20;15.40;;;19.60;99.90;;;;;;5024346;28;20452;-80
2022/06/27 08:20:40;;;;;;;17.03;15.17;;;19.60;99.90;;;;;;5032034;28;20536;-80
2022/06/27 08:23:08;;;;;;;20.47;14.73;;;19.70;99.90;;;;;;5047982;28;20479;-80
2022/06/27 08:25:37;;;;;;;21.87;17.47;;;19.70;99.90;;;;;;5041353;28;20495;-80
2022/06/27 08:28:05;;;;;;;21.00;15.97;;;19.80;99.90;;;;;;5038891;28;20502;-79
2022/06/27 08:30:33;;;;;;;18.57;14.80;;;19.80;99.90;;;;;;5038879;28;20455;-80
2022/06/27 08:33:01;;;;;;;18.93;15.20;;;19.90;99.90;;;;;;5039542;28;21033;-80
2022/06/27 08:35:28;;;;;;;17.53;14.70;;;20.10;99.90;;;;;;5037699;28;20470;-81
2022/06/27 08:37:58;;;;;;;15.80;13.53;;;20.30;99.90;;;;;;5037833;28;20976;-81
2022/06/27 08:40:26;;;;;;;19.03;14.40;;;20.40;99.90;;;;;;5041278;28;20449;-78
2022/06/27 08:42:55;;;;;;;22.77;17.57;;;20.50;99.90;;;;;;5041125;28;20506;-78
2022/06/27 08:45:25;;;;;;;18.23;14.70;;;20.40;99.90;;;;;;5059201;28;20466;-80
2022/06/27 08:47:54;;;;;;;18.47;14.00;;;20.50;99.90;;;;;;5044345;28;20516;-79
2022/06/27 08:50:23;;;;;;;19.23;16.77;;;20.50;99.90;;;;;;5051236;28;20452;-84
2022/06/27 08:52:51;;;;;;;18.00;14.00;;;20.50;99.90;;;;;;5065110;28;20483;-84
2022/06/27 08:55:18;;;;;;;17.87;14.27;;;20.40;99.90;;;;;;5074065;28;20440;-82
2022/06/27 08:57:45;;;;;;;17.97;15.93;;;20.40;99.90;;;;;;5059497;28;20448;-79
2022/06/27 09:00:17;;;;;;;19.33;15.23;;;20.40;99.90;;;;;;5042036;28;20532;-80
2022/06/27 09:02:44;;;;;;;17.40;14.90;;;20.40;99.90;;;;;;5032173;28;20493;-80
2022/06/27 09:05:21;;;;;;;22.40;15.47;;;20.50;99.90;;;;;;5035480;28;20876;-79
2022/06/27 09:07:50;;;;;;;19.67;15.40;;;20.60;99.90;;;;;;5035342;28;20449;-81
2022/06/27 09:10:27;;;;;;;21.67;16.17;;;20.60;99.90;;;;;;5035788;28;20492;-80
2022/06/27 09:12:55;;;;;;;21.33;16.70;;;20.60;99.90;;;;;;5025136;28;20484;-80
2022/06/27 09:15:26;;;;;;;20.10;15.50;;;20.70;99.90;;;;;;5023699;28;20449;-82
2022/06/27 09:18:01;;;;;;;17.70;15.90;;;20.80;99.90;;;;;;5030400;28;20983;-82
2022/06/27 09:20:46;;;;;;;17.27;15.40;;;20.80;99.90;;;;;;5035324;28;21076;-79
2022/06/27 09:23:35;;;;;;;18.50;15.87;;;20.90;99.90;;;;;;5035422;28;20461;-80
2022/06/27 09:26:04;;;;;;;18.93;16.90;;;20.80;99.90;;;;;;5032661;28;20457;-79
2022/06/27 09:28:43;;;;;;;17.10;15.30;;;20.80;99.90;;;;;;5056415;28;20516;-77
2022/06/27 09:31:15;;;;;;;13.70;12.30;;;20.80;99.90;;;;;;5055401;28;20499;-77
2022/06/27 09:33:43;;;;;;;13.67;12.20;;;20.70;99.90;;;;;;5049244;28;20510;-78
2022/06/27 09:36:12;;;;;;;13.90;11.50;;;20.70;99.90;;;;;;5034442;28;20498;-79
2022/06/27 09:38:43;;;;;;;13.20;11.57;;;20.80;99.90;;;;;;5039960;28;20451;-77
2022/06/27 09:41:12;;;;;;;10.43;9.33;;;20.80;99.90;;;;;;5042982;28;20823;-80
2022/06/27 09:43:44;;;;;;;14.10;10.00;;;20.80;99.90;;;;;;5035598;28;20810;-81
2022/06/27 09:46:14;;;;;;;10.30;9.20;;;20.90;99.90;;;;;;5037345;28;20444;-77
2022/06/27 09:48:44;;;;;;;11.20;8.43;;;21.00;99.90;;;;;;5043191;28;20509;-79
2022/06/27 09:51:15;;;;;;;9.23;8.33;;;21.10;99.90;;;;;;5044385;28;20471;-77
2022/06/27 09:53:48;;;;;;;11.90;9.27;;;21.20;99.90;;;;;;5050217;28;20544;-79
2022/06/27 09:56:19;;;;;;;11.73;9.13;;;21.40;99.90;;;;;;5020369;28;20458;-78
2022/06/27 09:58:47;;;;;;;9.60;8.63;;;21.50;99.90;;;;;;5019587;28;20464;-79
2022/06/27 10:01:17;;;;;;;9.33;8.10;;;21.40;99.90;;;;;;5020405;28;20497;-80
2022/06/27 10:03:45;;;;;;;9.10;7.50;;;21.50;99.90;;;;;;5021501;28;20920;-81
2022/06/27 10:06:14;;;;;;;8.40;7.47;;;21.50;99.90;;;;;;5038000;28;20467;-80
2022/06/27 10:08:47;;;;;;;9.23;8.10;;;21.40;99.90;;;;;;5041611;28;20491;-83
2022/06/27 10:11:15;;;;;;;9.67;8.50;;;21.40;99.90;;;;;;5039218;28;20544;-82
2022/06/27 10:13:44;;;;;;;11.00;8.90;;;21.40;99.90;;;;;;5039948;28;20448;-78
2022/06/27 10:16:13;;;;;;;11.97;10.83;;;21.30;99.90;;;;;;5046676;28;20499;-78
2022/06/27 10:19:03;;;;;;;11.43;9.50;;;21.40;99.90;;;;;;5038635;28;20480;-78
2022/06/27 10:21:32;;;;;;;13.53;9.27;;;21.30;99.90;;;;;;5026034;28;20477;-79
2022/06/27 10:24:35;;;;;;;14.83;9.37;;;21.40;99.90;;;;;;5038753;28;20516;-82
2022/06/27 10:27:05;;;;;;;9.10;8.23;;;21.50;99.90;;;;;;5028869;28;20453;-81
2022/06/27 10:29:39;;;;;;;10.47;9.40;;;21.70;99.90;;;;;;5034319;28;20491;-79
2022/06/27 10:32:08;;;;;;;9.47;8.57;;;21.90;99.90;;;;;;5047973;28;20617;-80
2022/06/27 10:35:09;;;;;;;14.10;10.97;;;22.00;99.90;;;;;;5048407;28;20440;-80
2022/06/27 10:37:40;;;;;;;12.23;11.07;;;22.00;99.90;;;;;;5040590;28;20475;-79
2022/06/27 10:40:53;;;;;;;13.03;11.73;;;22.10;99.90;;;;;;5056585;28;20444;-78
2022/06/27 10:43:45;;;;;;;15.60;12.90;;;22.40;99.90;;;;;;5050385;28;20455;-80
2022/06/27 10:46:42;;;;;;;10.97;10.07;;;22.80;99.90;;;;;;5049337;28;20457;-81
2022/06/27 10:49:20;;;;;;;13.47;11.30;;;23.30;99.90;;;;;;5045598;28;20488;-79
2022/06/27 10:51:49;;;;;;;10.57;9.50;;;23.60;99.90;;;;;;5049664;28;20472;-81
2022/06/27 10:54:19;;;;;;;10.40;9.40;;;23.90;99.90;;;;;;5057143;28;20482;-80
2022/06/27 10:56:48;;;;;;;9.60;8.60;;;23.90;99.90;;;;;;5045661;28;20457;-79
2022/06/27 10:59:54;;;;;;;9.30;8.13;;;23.70;99.90;;;;;;5049391;28;20440;-78
2022/06/27 11:02:22;;;;;;;9.90;8.97;;;23.50;99.90;;;;;;4972231;28;20463;-80
2022/06/27 11:04:49;;;;;;;10.30;8.30;;;23.30;99.90;;;;;;5038274;28;20531;-79
2022/06/27 11:07:17;;;;;;;9.33;8.13;;;23.10;99.90;;;;;;5047789;28;20480;-78
2022/06/27 11:09:46;;;;;;;9.70;8.20;;;23.10;99.90;;;;;;5060448;28;20482;-78
2022/06/27 11:12:16;;;;;;;10.83;9.30;;;22.90;99.90;;;;;;5048641;28;20802;-81
2022/06/27 11:14:48;;;;;;;11.50;9.23;;;22.60;99.90;;;;;;5042815;28;20671;-79
2022/06/27 11:17:43;;;;;;;4.10;3.17;;;22.50;99.90;;;;;;5041860;28;20516;-78
2022/06/27 11:20:25;;;;;;;5.63;5.03;;;22.30;99.90;;;;;;4992832;28;20453;-80
2022/06/27 11:22:57;;;;;;;9.30;8.50;;;22.30;99.90;;;;;;5036950;28;20546;-82
2022/06/27 11:25:27;;;;;;;10.60;9.07;;;22.30;99.90;;;;;;5042149;28;20451;-80
2022/06/27 11:27:56;;;;;;;10.97;9.97;;;22.40;99.90;;;;;;5042376;28;20520;-81
2022/06/27 11:33:13;;;;;;;13.87;12.47;;;22.40;99.90;;;;;;5048828;28;20518;-80
2022/06/27 11:35:40;;;;;;;13.27;11.83;;;22.60;99.90;;;;;;5040928;28;20538;-79
2022/06/27 11:38:10;;;;;;;15.60;14.03;;;22.70;99.90;;;;;;5043701;28;20492;-81
2022/06/27 11:40:37;;;;;;;16.10;14.50;;;22.70;99.90;;;;;;5050606;28;20490;-79
2022/06/27 11:43:03;;;;;;;15.17;13.67;;;22.70;99.90;;;;;;5042103;28;20505;-79
2022/06/27 11:45:40;;;;;;;20.47;17.07;;;22.80;99.90;;;;;;5045247;28;20449;-80
2022/06/27 11:48:14;;;;;;;18.77;16.77;;;22.70;99.90;;;;;;5049466;28;20461;-78
2022/06/27 11:50:42;;;;;;;20.37;17.70;;;22.50;99.90;;;;;;5041768;28;20487;-79
2022/06/27 11:53:10;;;;;;;19.27;17.17;;;22.20;99.90;;;;;;5058461;28;20527;-79
2022/06/27 11:55:37;;;;;;;19.30;16.33;;;22.20;99.90;;;;;;5047350;28;20455;-80
2022/06/27 11:58:04;;;;;;;16.83;15.07;;;22.20;99.90;;;;;;5041305;28;20461;-79
2022/06/27 12:00:33;;;;;;;17.30;15.50;;;22.20;99.90;;;;;;5046368;28;20496;-81
2022/06/27 12:03:06;;;;;;;18.47;16.47;;;22.30;99.90;;;;;;5047821;28;20535;-80
2022/06/27 12:05:34;;;;;;;19.93;17.93;;;22.30;99.90;;;;;;5028001;28;20468;-80
2022/06/27 12:08:03;;;;;;;17.00;15.30;;;22.10;99.90;;;;;;5029086;28;20465;-80
2022/06/27 12:10:40;;;;;;;21.50;17.70;;;22.10;99.90;;;;;;5029387;28;20489;-78
2022/06/27 12:13:11;;;;;;;16.20;14.47;;;22.20;99.90;;;;;;5046134;28;20469;-78
2022/06/27 12:15:39;;;;;;;21.90;17.53;;;22.10;99.90;;;;;;5054571;28;20456;-80
2022/06/27 12:18:09;;;;;;;19.27;17.37;;;22.10;99.90;;;;;;5046762;28;20441;-81
2022/06/27 12:20:36;;;;;;;20.90;17.57;;;22.10;99.90;;;;;;5041605;28;20492;-80
2022/06/27 12:23:04;;;;;;;19.07;17.17;;;22.30;99.90;;;;;;5045677;28;20472;-79
2022/06/27 12:25:30;;;;;;;19.00;17.00;;;22.60;99.90;;;;;;5033773;28;20524;-77
2022/06/27 12:27:59;;;;;;;20.17;17.67;;;23.10;99.90;;;;;;5037292;28;20453;-80
2022/06/27 12:30:26;;;;;;;18.30;16.67;;;23.40;99.90;;;;;;5039608;28;20508;-79
2022/06/27 12:32:53;;;;;;;18.83;16.93;;;23.80;99.90;;;;;;5055331;28;21011;-80
2022/06/27 12:35:23;;;;;;;18.77;16.93;;;24.20;99.90;;;;;;5029673;28;20747;-80
2022/06/27 12:37:50;;;;;;;17.37;15.67;;;24.80;99.90;;;;;;5038567;28;20937;-79
2022/06/27 12:40:17;;;;;;;15.97;14.37;;;25.20;99.90;;;;;;5035045;28;20486;-77
2022/06/27 12:42:43;;;;;;;15.17;13.67;;;25.30;99.90;;;;;;5031278;28;20550;-80
2022/06/27 12:45:13;;;;;;;15.43;13.93;;;25.20;99.90;;;;;;5038801;28;20541;-78
2022/06/27 12:47:40;;;;;;;14.13;12.80;;;24.90;99.90;;;;;;5042197;28;20473;-80
2022/06/27 12:50:07;;;;;;;19.20;17.30;;;24.80;99.90;;;;;;5031383;28;20495;-80
2022/06/27 12:52:34;;;;;;;19.13;17.13;;;24.40;99.90;;;;;;5052568;28;20503;-78
2022/06/27 12:55:01;;;;;;;18.23;15.63;;;24.00;99.90;;;;;;5043508;28;20455;-79
2022/06/27 12:57:28;;;;;;;15.50;14.10;;;23.80;99.90;;;;;;5052888;28;20995;-78
2022/06/27 12:59:55;;;;;;;16.37;14.67;;;23.80;99.90;;;;;;5032387;28;20880;-78
2022/06/27 13:02:23;;;;;;;15.33;13.90;;;23.60;99.90;;;;;;5034601;28;20501;-79
2022/06/27 13:04:50;;;;;;;15.43;13.33;;;23.30;99.90;;;;;;5034139;28;20476;-79
2022/06/27 13:07:17;;;;;;;12.80;11.60;;;23.10;99.90;;;;;;5028532;28;20512;-77
2022/06/27 13:09:43;;;;;;;13.40;12.00;;;23.00;99.90;;;;;;5016965;28;20477;-79
2022/06/27 13:12:12;;;;;;;14.23;12.73;;;23.00;99.90;;;;;;5016520;28;20461;-79
2022/06/27 13:14:39;;;;;;;13.40;12.13;;;22.70;99.90;;;;;;5024106;28;20453;-80
2022/06/27 13:17:06;;;;;;;16.13;12.47;;;22.70;99.90;;;;;;5036105;28;20775;-80
2022/06/27 13:19:34;;;;;;;14.77;13.20;;;22.60;99.90;;;;;;5034951;28;20524;-78
2022/06/27 13:22:02;;;;;;;12.10;10.83;;;22.50;99.90;;;;;;5040874;28;20528;-80